METAR AND TAF INFORMATION
METAR FOR ESDF
ADDS - METARS form results

(0147 UTC 10 September 2022)
Data provider http://aviationweather.gov/metar/data/
 
METAR text: ESDF 100120Z AUTO 05004KT 9999 FEW005/// SCT024/// OVC032/// 13/13 Q1014
Conditions at: ESDF (RONNEBY (SWE-AFB, SE) observed 0120 UTC 10 September 2022
Temperature: 13.0°C (55°F)
Dewpoint: 13.0°C (55°F) [RH = 100%]
Pressure (altimeter): 29.94 inches Hg (1014.0 mb)
Winds: from the NE (50 degrees) at 5 MPH (4 knots; 2.1 m/s)
Visibility: 6 or more miles (10+ km)
Ceiling: 3200 feet AGL
Clouds: few clouds at 500 feet AGL
scattered clouds at 2400 feet AGL
overcast cloud deck at 3200 feet AGL
Weather: no significant weather observed at this time

METAR text: ESDF 100050Z AUTO 04005KT 9000 FEW006/// SCT021/// OVC028/// 13/13 Q1014
Conditions at: ESDF (RONNEBY (SWE-AFB, SE) observed 0050 UTC 10 September 2022
Temperature: 13.0°C (55°F)
Dewpoint: 13.0°C (55°F) [RH = 100%]
Pressure (altimeter): 29.94 inches Hg (1014.0 mb)
Winds: from the NE (40 degrees) at 6 MPH (5 knots; 2.6 m/s)
Visibility: 6 miles ( 9 km)
Ceiling: 2800 feet AGL
Clouds: few clouds at 600 feet AGL
scattered clouds at 2100 feet AGL
overcast cloud deck at 2800 feet AGL
Weather: no significant weather observed at this time

Forecast for: ESDF (RONNEBY (SWE-AFB, SE)
Text: TAF ESDF 091430Z 0915/0919 10012KT 2000 BR -RA OVC005
Forecast period: 1500 to 1900 UTC 09 September 2022
Forecast type: FROM: standard forecast or significant change
Winds: from the E (100 degrees) at 14 MPH (12 knots; 6.2 m/s)
Visibility: 1.24 miles (2.00 km)
Ceiling: 500 feet AGL
Clouds: overcast cloud deck at 500 feet AGL
Weather: BR -RA  (mist, light rain)
Text: TEMPO 0915/0919 5000 BKN012
Forecast period: 1500 to 1900 UTC 09 September 2022
Forecast type: TEMPORARY: The following changes expected for less than half the time period
Visibility: 3 miles (5 km)
Ceiling: 1200 feet AGL
Clouds: broken clouds at 1200 feet AGL
Weather: no significant weather forecast for this period

 AIRPORT MAP

 RUNWAY INFORMATION
Runway 01 Runway length 7648 ft Runway width 148 ft
Runway elevation 181 ft Runway displaced threshold 0 ft Runway heading 9
Runway 19 Runway length 7648 ft Runway width 148 ft
Runway elevation 188 ft Runway displaced threshold 0 ft Runway heading 189

 AIRPORT FREQUENCIES
Type GND Name GND Frequency 121.7 MHZ
Type TCA Name CON Frequency 128.45 MHZ
Type TWR Name TWR Frequency 119.2 MHZ

 AIRPORT NEAR NAVIGATION AIDS
Type NDB Name Ronneby Frequency 380 KHZ
Type NDB Name Ronneby Frequency 318 KHZ